Time;durP1;ratioP1;P1;durP2;ratioP2;P2;SDS_P1;SDS_P2;PMS_P1;PMS_P2;Temp;Humidity;BMP_temperature;BMP_pressure;BME280_temperature;BME280_humidity;BME280_pressure;Samples;Min_cycle;Max_cycle;Signal;HPM_P1;HPM_P2
2021/12/22 00:00:25;;;;;;;12.38;5.13;;;;;;;;;;5112889;28;20076;-65
2021/12/22 00:02:51;;;;;;;6.82;4.93;;;;;;;;;;5112683;28;20032;-65
2021/12/22 00:05:20;;;;;;;9.13;5.60;;;;;;;;;;5112538;28;20050;-66
2021/12/22 00:07:46;;;;;;;8.77;5.15;;;;;;;;;;5112927;28;20020;-66
2021/12/22 00:10:12;;;;;;;7.30;4.88;;;;;;;;;;5112659;28;20103;-65
2021/12/22 00:12:39;;;;;;;9.63;5.18;;;;;;;;;;5115806;28;20110;-66
2021/12/22 00:15:05;;;;;;;7.78;4.50;;;;;;;;;;5101830;28;20024;-67
2021/12/22 00:17:31;;;;;;;10.13;4.80;;;;;;;;;;5096081;28;20051;-65
2021/12/22 00:19:58;;;;;;;12.57;5.20;;;;;;;;;;5093103;28;20438;-66
2021/12/22 00:22:24;;;;;;;8.98;5.10;;;;;;;;;;5116548;28;20114;-66
2021/12/22 00:24:50;;;;;;;9.73;5.53;;;;;;;;;;5116198;28;20092;-65
2021/12/22 00:27:16;;;;;;;6.97;4.97;;;;;;;;;;5116232;28;20533;-66
2021/12/22 00:29:46;;;;;;;16.35;5.60;;;;;;;;;;5116110;28;20424;-66
2021/12/22 00:32:15;;;;;;;15.38;4.72;;;;;;;;;;5116234;28;20046;-66
2021/12/22 00:34:50;;;;;;;14.23;4.90;;;;;;;;;;5116244;28;20094;-67
2021/12/22 00:37:19;;;;;;;14.15;4.85;;;;;;;;;;5116182;28;20019;-66
2021/12/22 00:39:45;;;;;;;12.43;5.03;;;;;;;;;;5115739;28;20123;-67
2021/12/22 00:42:12;;;;;;;12.07;4.82;;;;;;;;;;5078825;28;20387;-67
2021/12/22 00:44:38;;;;;;;11.15;4.43;;;;;;;;;;5108305;28;20020;-67
2021/12/22 00:47:04;;;;;;;7.47;4.88;;;;;;;;;;5116074;28;20059;-67
2021/12/22 00:49:30;;;;;;;10.52;4.97;;;;;;;;;;5116033;28;20054;-68
2021/12/22 00:51:56;;;;;;;9.88;4.93;;;;;;;;;;5115894;28;20028;-67
2021/12/22 00:54:22;;;;;;;11.50;4.97;;;;;;;;;;5097611;28;20080;-67
2021/12/22 00:56:48;;;;;;;10.98;4.50;;;;;;;;;;5115687;28;20027;-68
2021/12/22 00:59:16;;;;;;;9.10;4.88;;;;;;;;;;5115456;28;20058;-67
2021/12/22 01:01:42;;;;;;;7.90;5.00;;;;;;;;;;5115708;28;20063;-67
2021/12/22 01:04:08;;;;;;;7.65;4.50;;;;;;;;;;5115528;28;20921;-68
2021/12/22 01:06:35;;;;;;;10.65;5.05;;;;;;;;;;5097284;28;20054;-68
2021/12/22 01:09:01;;;;;;;12.52;5.30;;;;;;;;;;5115329;28;20408;-67
2021/12/22 01:11:27;;;;;;;18.48;5.65;;;;;;;;;;5111559;28;20523;-66
2021/12/22 01:13:53;;;;;;;10.55;4.75;;;;;;;;;;5074577;28;20483;-67
2021/12/22 01:16:19;;;;;;;9.75;4.65;;;;;;;;;;5074695;28;20113;-67
2021/12/22 01:18:45;;;;;;;11.02;5.28;;;;;;;;;;5074705;28;20147;-71
2021/12/22 01:21:19;;;;;;;8.50;5.38;;;;;;;;;;5074605;28;20093;-67
2021/12/22 01:24:02;;;;;;;14.90;5.55;;;;;;;;;;5055810;28;20027;-67
2021/12/22 01:26:30;;;;;;;11.77;5.30;;;;;;;;;;5056428;28;20107;-67
2021/12/22 01:28:56;;;;;;;12.40;4.97;;;;;;;;;;5074232;28;20020;-67
2021/12/22 01:31:22;;;;;;;10.85;6.45;;;;;;;;;;5092927;28;20035;-68
2021/12/22 01:33:48;;;;;;;15.43;5.53;;;;;;;;;;5106672;28;20028;-69
2021/12/22 01:36:14;;;;;;;11.23;5.90;;;;;;;;;;5102799;28;20013;-67
2021/12/22 01:38:40;;;;;;;11.68;5.72;;;;;;;;;;5104056;28;20056;-67
2021/12/22 01:41:06;;;;;;;9.90;4.95;;;;;;;;;;5100667;28;20031;-67
2021/12/22 01:43:32;;;;;;;13.35;5.72;;;;;;;;;;5105380;28;20023;-68
2021/12/22 01:51:36;;;;;;;8.55;5.47;;;;;;;;;;5102945;28;20032;-69
2021/12/22 01:54:04;;;;;;;11.15;5.32;;;;;;;;;;5079480;28;20379;-68
2021/12/22 01:56:33;;;;;;;10.93;4.80;;;;;;;;;;5100074;28;20432;-67
2021/12/22 01:59:00;;;;;;;10.35;5.35;;;;;;;;;;5103556;28;20030;-67
2021/12/22 02:01:26;;;;;;;12.85;5.63;;;;;;;;;;5113780;28;20058;-67
2021/12/22 02:03:53;;;;;;;11.40;5.32;;;;;;;;;;5110635;28;20111;-67
2021/12/22 02:06:20;;;;;;;20.77;6.00;;;;;;;;;;5103156;28;20031;-67
2021/12/22 02:08:47;;;;;;;11.82;5.90;;;;;;;;;;5108249;28;20033;-67
2021/12/22 02:11:14;;;;;;;12.65;5.40;;;;;;;;;;5113968;28;20102;-67
2021/12/22 02:13:43;;;;;;;8.00;5.10;;;;;;;;;;5104531;28;20015;-67
2021/12/22 02:16:13;;;;;;;17.83;5.50;;;;;;;;;;5101693;28;20686;-67
2021/12/22 02:18:45;;;;;;;10.88;5.20;;;;;;;;;;5092493;28;20030;-66
2021/12/22 02:21:11;;;;;;;11.45;5.80;;;;;;;;;;5105305;28;20050;-67
2021/12/22 02:23:39;;;;;;;13.65;5.07;;;;;;;;;;5104998;28;20034;-66
2021/12/22 02:26:11;;;;;;;12.45;5.30;;;;;;;;;;5086367;28;20043;-66
2021/12/22 02:28:41;;;;;;;;;;;;;;;;;;5081794;28;20036;-67
2021/12/22 02:31:12;;;;;;;9.93;4.97;;;;;;;;;;5101521;28;19926;-66
2021/12/22 02:33:40;;;;;;;13.15;5.15;;;;;;;;;;5078211;28;20024;-66
2021/12/22 02:36:09;;;;;;;14.60;5.47;;;;;;;;;;5092430;28;20032;-67
2021/12/22 02:38:37;;;;;;;10.23;4.80;;;;;;;;;;5075225;28;20055;-67
2021/12/22 02:41:04;;;;;;;10.60;5.70;;;;;;;;;;5093341;28;20036;-67
2021/12/22 02:43:33;;;;;;;17.35;4.93;;;;;;;;;;5100461;28;20023;-67
2021/12/22 02:45:59;;;;;;;6.85;4.88;;;;;;;;;;5095263;28;20430;-66
2021/12/22 02:48:32;;;;;;;8.20;5.15;;;;;;;;;;5094482;28;20032;-67
2021/12/22 02:51:01;;;;;;;10.98;5.50;;;;;;;;;;5098427;28;20020;-67
2021/12/22 02:53:37;;;;;;;8.50;5.03;;;;;;;;;;5095066;28;20035;-67
2021/12/22 02:56:52;;;;;;;31.50;5.57;;;;;;;;;;5113613;28;20027;-67
2021/12/22 03:03:55;;;;;;;13.43;5.28;;;;;;;;;;5113413;28;20020;-66
2021/12/22 03:06:32;;;;;;;14.25;5.75;;;;;;;;;;5113238;28;20080;-66
2021/12/22 03:08:58;;;;;;;14.30;5.82;;;;;;;;;;5113467;28;20103;-66
2021/12/22 03:11:24;;;;;;;11.90;5.18;;;;;;;;;;5095134;28;20089;-66
2021/12/22 03:13:50;;;;;;;14.85;5.32;;;;;;;;;;5113239;28;20488;-67
2021/12/22 03:16:19;;;;;;;13.98;5.50;;;;;;;;;;5113562;28;20100;-66
2021/12/22 03:18:45;;;;;;;10.45;5.38;;;;;;;;;;5113436;28;20016;-67
2021/12/22 03:21:22;;;;;;;14.27;6.07;;;;;;;;;;5092772;28;20063;-66
2021/12/22 03:23:49;;;;;;;8.73;5.32;;;;;;;;;;5092856;28;20032;-68
2021/12/22 03:26:17;;;;;;;9.57;5.38;;;;;;;;;;5093056;28;20052;-66
2021/12/22 03:28:44;;;;;;;17.20;5.38;;;;;;;;;;5092852;28;20020;-68
2021/12/22 03:31:10;;;;;;;15.60;5.50;;;;;;;;;;5074444;28;20107;-67
2021/12/22 03:33:36;;;;;;;8.52;5.40;;;;;;;;;;5092746;28;20028;-66
2021/12/22 03:36:02;;;;;;;12.27;5.20;;;;;;;;;;5091712;28;20028;-66
2021/12/22 03:38:30;;;;;;;10.25;5.50;;;;;;;;;;5092576;28;20077;-66
2021/12/22 03:40:56;;;;;;;10.88;5.10;;;;;;;;;;5092878;28;20024;-66
2021/12/22 03:43:22;;;;;;;10.95;5.78;;;;;;;;;;5092788;28;20372;-66
2021/12/22 03:45:48;;;;;;;11.18;5.47;;;;;;;;;;5093101;28;20024;-67
2021/12/22 03:48:17;;;;;;;9.55;5.43;;;;;;;;;;5096548;28;20028;-66
2021/12/22 03:50:43;;;;;;;14.10;5.43;;;;;;;;;;5099552;28;20069;-66
2021/12/22 03:53:09;;;;;;;11.05;5.38;;;;;;;;;;5116999;28;20043;-66
2021/12/22 03:55:35;;;;;;;12.38;5.20;;;;;;;;;;5082420;28;20048;-66
2021/12/22 03:58:01;;;;;;;8.68;5.57;;;;;;;;;;5076087;28;20036;-66
2021/12/22 04:00:27;;;;;;;12.50;6.45;;;;;;;;;;5076134;28;20035;-67
2021/12/22 04:02:53;;;;;;;8.27;5.47;;;;;;;;;;5076050;28;20067;-67
2021/12/22 04:05:19;;;;;;;10.73;5.15;;;;;;;;;;5076161;28;20028;-67
2021/12/22 04:07:45;;;;;;;10.20;6.00;;;;;;;;;;5076114;28;20055;-66
2021/12/22 04:10:20;;;;;;;9.88;5.97;;;;;;;;;;5075888;28;20021;-67
2021/12/22 04:12:50;;;;;;;22.25;5.70;;;;;;;;;;5075946;28;20025;-66
2021/12/22 04:15:16;;;;;;;10.90;5.00;;;;;;;;;;5075860;28;20029;-66
2021/12/22 04:17:42;;;;;;;28.80;6.25;;;;;;;;;;5075750;28;20502;-67
2021/12/22 04:20:08;;;;;;;13.48;5.90;;;;;;;;;;5110476;28;20059;-66
2021/12/22 04:22:34;;;;;;;9.25;5.75;;;;;;;;;;5116224;28;20096;-67
2021/12/22 04:25:00;;;;;;;20.10;6.05;;;;;;;;;;5116440;28;20102;-67
2021/12/22 04:27:26;;;;;;;20.23;5.90;;;;;;;;;;5116262;28;20026;-67
2021/12/22 04:29:52;;;;;;;14.52;6.32;;;;;;;;;;5102628;28;20028;-67
2021/12/22 04:32:18;;;;;;;12.02;6.03;;;;;;;;;;5095795;28;20032;-67
2021/12/22 04:34:44;;;;;;;12.05;5.82;;;;;;;;;;5095775;28;20483;-67
2021/12/22 04:37:10;;;;;;;11.85;6.35;;;;;;;;;;5095443;28;20067;-67
2021/12/22 04:39:36;;;;;;;15.90;6.32;;;;;;;;;;5095601;28;20048;-67
2021/12/22 04:42:02;;;;;;;19.67;6.07;;;;;;;;;;5077169;28;20042;-67
2021/12/22 04:44:28;;;;;;;14.70;6.85;;;;;;;;;;5110728;28;20098;-67
2021/12/22 04:46:54;;;;;;;12.65;6.68;;;;;;;;;;5115864;28;20114;-67
2021/12/22 04:49:20;;;;;;;13.43;6.60;;;;;;;;;;5115769;28;20024;-67
2021/12/22 04:51:52;;;;;;;9.40;6.30;;;;;;;;;;5097552;28;20031;-67
2021/12/22 04:54:30;;;;;;;9.82;6.28;;;;;;;;;;5115861;28;20016;-66
2021/12/22 04:56:57;;;;;;;15.05;6.80;;;;;;;;;;5105193;28;20024;-67
2021/12/22 04:59:23;;;;;;;18.17;6.55;;;;;;;;;;5094178;28;20016;-67
2021/12/22 05:01:50;;;;;;;12.77;7.10;;;;;;;;;;5095130;28;20039;-67
2021/12/22 05:04:16;;;;;;;11.73;6.80;;;;;;;;;;5095109;28;20020;-66
2021/12/22 05:06:42;;;;;;;13.82;6.65;;;;;;;;;;5095139;28;20540;-67
2021/12/22 05:09:08;;;;;;;9.85;6.35;;;;;;;;;;5095048;28;20052;-66
2021/12/22 05:11:35;;;;;;;8.77;6.10;;;;;;;;;;5095204;28;20028;-67
2021/12/22 05:14:03;;;;;;;11.93;7.03;;;;;;;;;;5095043;28;20055;-67
2021/12/22 05:16:29;;;;;;;11.05;6.88;;;;;;;;;;5094969;28;20020;-66
2021/12/22 05:21:21;;;;;;;10.90;7.10;;;;;;;;;;5115475;28;20131;-66
2021/12/22 05:23:50;;;;;;;13.93;7.15;;;;;;;;;;5114867;28;20057;-67
2021/12/22 05:26:16;;;;;;;9.88;6.55;;;;;;;;;;5115223;28;20019;-67
2021/12/22 05:28:42;;;;;;;10.15;6.32;;;;;;;;;;5115105;28;20098;-67
2021/12/22 05:31:08;;;;;;;15.15;6.63;;;;;;;;;;5103619;28;20086;-67
2021/12/22 05:33:34;;;;;;;11.65;6.82;;;;;;;;;;5094507;28;20473;-67
2021/12/22 05:36:00;;;;;;;13.30;7.20;;;;;;;;;;5076289;28;20058;-67
2021/12/22 05:38:26;;;;;;;30.25;7.13;;;;;;;;;;5094258;28;20031;-66
2021/12/22 05:40:52;;;;;;;19.65;6.38;;;;;;;;;;5094704;28;20115;-66
2021/12/22 05:43:18;;;;;;;12.57;6.85;;;;;;;;;;5099822;28;20028;-66
2021/12/22 05:45:44;;;;;;;20.48;7.05;;;;;;;;;;5108349;28;20461;-66
2021/12/22 05:48:10;;;;;;;11.95;7.07;;;;;;;;;;5094152;28;20078;-66
2021/12/22 05:50:36;;;;;;;17.05;6.80;;;;;;;;;;5096207;28;20069;-67
2021/12/22 05:53:03;;;;;;;10.95;6.15;;;;;;;;;;5114663;28;20069;-66
2021/12/22 05:55:29;;;;;;;20.05;6.35;;;;;;;;;;5114937;28;20077;-69
2021/12/22 05:57:55;;;;;;;15.77;7.70;;;;;;;;;;5114609;28;20028;-70
2021/12/22 06:00:22;;;;;;;11.98;6.68;;;;;;;;;;5114756;28;20023;-70
2021/12/22 06:02:48;;;;;;;14.98;7.28;;;;;;;;;;5109660;28;20030;-69
2021/12/22 06:05:14;;;;;;;15.35;7.55;;;;;;;;;;5086572;28;20024;-69
2021/12/22 06:07:40;;;;;;;12.82;7.40;;;;;;;;;;5094140;28;20036;-68
2021/12/22 06:10:07;;;;;;;12.65;6.88;;;;;;;;;;5093676;28;20056;-68
2021/12/22 06:12:33;;;;;;;14.82;6.97;;;;;;;;;;5075547;28;20364;-68
2021/12/22 06:14:59;;;;;;;12.85;7.32;;;;;;;;;;5094058;28;20024;-69
2021/12/22 06:17:25;;;;;;;11.70;7.35;;;;;;;;;;5093881;28;20478;-68
2021/12/22 06:19:51;;;;;;;15.60;7.50;;;;;;;;;;5108522;28;20473;-68
2021/12/22 06:22:17;;;;;;;11.00;6.72;;;;;;;;;;5114346;28;20039;-68
2021/12/22 06:24:43;;;;;;;16.23;7.25;;;;;;;;;;5114039;28;20023;-68
2021/12/22 06:27:09;;;;;;;11.90;7.25;;;;;;;;;;5115966;27;20042;-69
2021/12/22 06:29:35;;;;;;;12.93;7.50;;;;;;;;;;5096550;27;20032;-69
2021/12/22 06:32:01;;;;;;;11.50;7.13;;;;;;;;;;5115032;27;20019;-68
2021/12/22 06:34:27;;;;;;;11.00;6.60;;;;;;;;;;5114060;28;20569;-68
2021/12/22 06:36:53;;;;;;;12.63;7.30;;;;;;;;;;5095573;28;20030;-69
2021/12/22 06:39:19;;;;;;;15.10;7.55;;;;;;;;;;5099761;28;20047;-69
2021/12/22 06:41:46;;;;;;;19.70;7.40;;;;;;;;;;5097380;28;20046;-70
2021/12/22 06:44:13;;;;;;;25.10;7.45;;;;;;;;;;5088279;28;20047;-68
2021/12/22 06:46:41;;;;;;;58.25;7.80;;;;;;;;;;5097258;28;20033;-69
2021/12/22 06:49:07;;;;;;;66.18;8.20;;;;;;;;;;5113615;28;20023;-67
2021/12/22 06:51:33;;;;;;;50.17;7.65;;;;;;;;;;5113729;28;20024;-66
2021/12/22 06:53:59;;;;;;;36.33;7.65;;;;;;;;;;5094704;28;20024;-68
2021/12/22 06:56:25;;;;;;;36.97;7.70;;;;;;;;;;5055178;28;20422;-64
2021/12/22 06:58:51;;;;;;;36.90;7.72;;;;;;;;;;5072684;28;20020;-71
2021/12/22 07:01:19;;;;;;;40.50;7.00;;;;;;;;;;5072868;28;20029;-69
2021/12/22 07:03:46;;;;;;;24.13;7.35;;;;;;;;;;5072870;28;20035;-65
2021/12/22 07:06:12;;;;;;;31.98;7.03;;;;;;;;;;5072844;28;20095;-66
2021/12/22 07:08:39;;;;;;;23.25;7.90;;;;;;;;;;5072259;28;20024;-70
2021/12/22 07:11:05;;;;;;;18.70;7.55;;;;;;;;;;5054679;28;20078;-64
2021/12/22 07:13:31;;;;;;;16.05;8.00;;;;;;;;;;5072971;28;20042;-64
2021/12/22 07:15:58;;;;;;;23.38;7.80;;;;;;;;;;5072823;28;20480;-64
2021/12/22 07:18:24;;;;;;;23.40;7.50;;;;;;;;;;5078057;28;20039;-65
2021/12/22 07:20:50;;;;;;;15.60;7.57;;;;;;;;;;5113434;28;20371;-67
2021/12/22 07:23:16;;;;;;;16.55;6.43;;;;;;;;;;5117436;28;20043;-66
2021/12/22 07:25:42;;;;;;;15.95;7.13;;;;;;;;;;5119157;27;20035;-66
2021/12/22 07:28:10;;;;;;;19.77;6.97;;;;;;;;;;5117419;27;20032;-67
2021/12/22 07:30:36;;;;;;;15.73;7.00;;;;;;;;;;5116271;27;20031;-67
2021/12/22 07:33:03;;;;;;;12.40;7.03;;;;;;;;;;5096489;28;20053;-70
2021/12/22 07:35:30;;;;;;;20.08;7.65;;;;;;;;;;5098735;28;20116;-66
2021/12/22 07:38:07;;;;;;;14.48;7.28;;;;;;;;;;5096829;28;20024;-66
2021/12/22 07:40:34;;;;;;;18.73;7.38;;;;;;;;;;5096556;28;20055;-65
2021/12/22 07:43:00;;;;;;;15.25;7.97;;;;;;;;;;5094147;28;20039;-65
2021/12/22 07:45:26;;;;;;;17.38;7.85;;;;;;;;;;5076601;28;20034;-65
2021/12/22 07:47:52;;;;;;;18.45;7.88;;;;;;;;;;5092642;28;20026;-66
2021/12/22 07:50:18;;;;;;;18.27;7.30;;;;;;;;;;5098745;27;20032;-68
2021/12/22 07:52:43;;;;;;;16.38;8.18;;;;;;;;;;5116555;28;20020;-65
2021/12/22 07:55:10;;;;;;;18.88;8.43;;;;;;;;;;5116544;28;20031;-67
2021/12/22 07:57:36;;;;;;;18.40;7.07;;;;;;;;;;5116669;28;20019;-66
2021/12/22 08:00:02;;;;;;;17.25;7.93;;;;;;;;;;5097658;27;20108;-67
2021/12/22 08:02:28;;;;;;;12.43;8.15;;;;;;;;;;5081527;28;20533;-69
2021/12/22 08:04:54;;;;;;;18.08;8.20;;;;;;;;;;5075754;28;20444;-69
2021/12/22 08:07:20;;;;;;;12.48;7.75;;;;;;;;;;5056492;28;20770;-63
2021/12/22 08:09:46;;;;;;;16.83;8.10;;;;;;;;;;5074330;28;20025;-65
2021/12/22 08:12:12;;;;;;;12.55;8.02;;;;;;;;;;5074176;28;20020;-64
2021/12/22 08:14:41;;;;;;;19.98;8.65;;;;;;;;;;5073969;28;20060;-63
2021/12/22 08:17:08;;;;;;;14.15;8.82;;;;;;;;;;5073798;28;20413;-65
2021/12/22 08:19:34;;;;;;;17.02;8.25;;;;;;;;;;5099046;28;20024;-62
2021/12/22 08:22:00;;;;;;;19.08;8.57;;;;;;;;;;5114936;28;20443;-61
2021/12/22 08:24:26;;;;;;;14.07;8.20;;;;;;;;;;5115778;28;20028;-65
2021/12/22 08:26:52;;;;;;;16.05;9.20;;;;;;;;;;5116402;28;20019;-64
2021/12/22 08:29:19;;;;;;;19.52;9.13;;;;;;;;;;5116149;28;20031;-64
2021/12/22 08:31:45;;;;;;;17.17;9.15;;;;;;;;;;5115844;28;20020;-65
2021/12/22 08:34:13;;;;;;;16.80;8.75;;;;;;;;;;5115792;28;20028;-64
2021/12/22 08:39:26;;;;;;;18.45;9.15;;;;;;;;;;5115726;28;20128;-65
2021/12/22 08:41:52;;;;;;;18.08;9.32;;;;;;;;;;5115733;28;20027;-64
2021/12/22 08:44:19;;;;;;;18.45;9.05;;;;;;;;;;5115670;28;20148;-64
2021/12/22 08:46:49;;;;;;;22.55;8.85;;;;;;;;;;5097390;28;20386;-65
2021/12/22 08:49:16;;;;;;;19.13;9.35;;;;;;;;;;5115696;28;20032;-63
2021/12/22 08:51:42;;;;;;;25.35;10.20;;;;;;;;;;5115770;28;20058;-63
2021/12/22 08:54:08;;;;;;;23.98;9.55;;;;;;;;;;5115701;28;20051;-63
2021/12/22 08:56:35;;;;;;;17.58;10.32;;;;;;;;;;5097400;28;20103;-64
2021/12/22 08:59:02;;;;;;;27.30;11.07;;;;;;;;;;5115478;28;20040;-64
2021/12/22 09:01:27;;;;;;;21.92;10.70;;;;;;;;;;5115367;28;20049;-63
2021/12/22 09:03:54;;;;;;;20.58;11.77;;;;;;;;;;5115188;28;20102;-64
2021/12/22 09:06:20;;;;;;;19.63;11.52;;;;;;;;;;5115461;28;20032;-63
2021/12/22 09:08:46;;;;;;;23.30;11.38;;;;;;;;;;5115092;28;20122;-63
2021/12/22 09:11:13;;;;;;;19.13;11.70;;;;;;;;;;5115153;28;20027;-65
2021/12/22 09:13:39;;;;;;;28.77;11.95;;;;;;;;;;5115135;28;20032;-60
2021/12/22 09:16:06;;;;;;;23.02;12.13;;;;;;;;;;5105224;27;20032;-63
2021/12/22 09:18:32;;;;;;;19.90;11.73;;;;;;;;;;5078920;28;20433;-64
2021/12/22 09:20:58;;;;;;;27.20;11.88;;;;;;;;;;5115256;28;20028;-64
2021/12/22 09:23:24;;;;;;;26.60;12.20;;;;;;;;;;5101499;27;20063;-63
2021/12/22 09:25:50;;;;;;;23.05;12.20;;;;;;;;;;5076490;28;20032;-63
2021/12/22 09:28:16;;;;;;;25.92;12.32;;;;;;;;;;5094335;28;20032;-63
2021/12/22 09:30:44;;;;;;;22.08;13.05;;;;;;;;;;5093243;28;20111;-63
2021/12/22 09:33:14;;;;;;;24.65;12.68;;;;;;;;;;5093862;28;20737;-62
2021/12/22 09:35:40;;;;;;;23.25;13.18;;;;;;;;;;5075278;28;20451;-64
2021/12/22 09:38:06;;;;;;;17.95;10.75;;;;;;;;;;5094641;28;20084;-63
2021/12/22 09:40:32;;;;;;;22.92;12.90;;;;;;;;;;5075824;28;20044;-63
2021/12/22 09:42:58;;;;;;;23.58;12.90;;;;;;;;;;5076831;28;20306;-63
2021/12/22 09:45:25;;;;;;;22.42;12.32;;;;;;;;;;5093671;28;20161;-64
2021/12/22 09:50:50;;;;;;;20.50;12.75;;;;;;;;;;5094570;28;20467;-64
2021/12/22 09:53:18;;;;;;;22.73;13.50;;;;;;;;;;5075861;28;20028;-64
2021/12/22 09:55:44;;;;;;;20.23;11.93;;;;;;;;;;5093908;28;20103;-64
2021/12/22 09:58:11;;;;;;;28.75;14.68;;;;;;;;;;5093881;28;20503;-63
2021/12/22 10:00:38;;;;;;;32.25;13.98;;;;;;;;;;5094225;28;20059;-63
2021/12/22 10:03:05;;;;;;;35.92;14.38;;;;;;;;;;5094252;28;20036;-64
2021/12/22 10:05:31;;;;;;;35.92;13.02;;;;;;;;;;5094028;28;20031;-66
2021/12/22 10:08:07;;;;;;;35.95;14.65;;;;;;;;;;5093905;28;20028;-66
2021/12/22 10:22:18;;;;;;;23.10;13.00;;;;;;;;;;5072104;27;20802;-65
2021/12/22 10:24:46;;;;;;;21.65;12.18;;;;;;;;;;5068818;28;20032;-66
2021/12/22 10:27:22;;;;;;;25.95;13.43;;;;;;;;;;5070089;28;20068;-64
2021/12/22 10:29:48;;;;;;;23.85;12.55;;;;;;;;;;5069697;28;20032;-64
2021/12/22 10:32:16;;;;;;;24.45;12.02;;;;;;;;;;5070165;28;20115;-65
2021/12/22 10:35:01;;;;;;;22.13;12.48;;;;;;;;;;5069828;28;20021;-64
2021/12/22 10:37:35;;;;;;;20.80;12.13;;;;;;;;;;5069935;28;20033;-67
2021/12/22 10:40:01;;;;;;;21.23;12.50;;;;;;;;;;5069542;28;20048;-66
2021/12/22 10:42:41;;;;;;;24.38;14.27;;;;;;;;;;5070020;28;20130;-67
2021/12/22 10:45:11;;;;;;;23.63;13.07;;;;;;;;;;5069856;28;20032;-67
2021/12/22 10:49:14;;;;;;;26.33;14.55;;;;;;;;;;5069514;28;20601;-66
2021/12/22 10:50:31;;;;;;;26.85;15.48;;;;;;;;;;5069237;28;20029;-65
2021/12/22 10:52:58;;;;;;;24.65;15.50;;;;;;;;;;5069536;28;20195;-67
2021/12/22 10:55:24;;;;;;;25.20;15.45;;;;;;;;;;5069431;28;20051;-66
2021/12/22 10:57:50;;;;;;;25.77;14.82;;;;;;;;;;5069379;28;20052;-67
2021/12/22 11:00:16;;;;;;;26.13;13.90;;;;;;;;;;5069233;28;20372;-65
2021/12/22 11:02:48;;;;;;;23.25;14.15;;;;;;;;;;5069392;28;20067;-68
2021/12/22 11:05:28;;;;;;;25.58;15.07;;;;;;;;;;5069414;28;20349;-68
2021/12/22 11:07:55;;;;;;;27.00;13.98;;;;;;;;;;5069092;28;20025;-67
2021/12/22 11:10:28;;;;;;;20.52;14.13;;;;;;;;;;5069149;28;20020;-67
2021/12/22 11:13:04;;;;;;;22.98;14.27;;;;;;;;;;5069044;28;20025;-67
2021/12/22 11:15:30;;;;;;;22.42;13.82;;;;;;;;;;5068921;28;20029;-67
2021/12/22 11:17:56;;;;;;;23.80;14.20;;;;;;;;;;5068917;28;20031;-67
2021/12/22 11:20:23;;;;;;;25.08;14.07;;;;;;;;;;5107379;28;20052;-67
2021/12/22 11:22:58;;;;;;;25.05;14.98;;;;;;;;;;5109531;28;20024;-64
2021/12/22 11:25:25;;;;;;;22.77;14.48;;;;;;;;;;5109586;28;20020;-67
2021/12/22 11:27:52;;;;;;;23.70;15.57;;;;;;;;;;5109504;28;20020;-67
2021/12/22 11:30:22;;;;;;;23.65;13.82;;;;;;;;;;5109170;28;20518;-65
2021/12/22 11:32:48;;;;;;;26.17;13.98;;;;;;;;;;5100452;28;20070;-67
2021/12/22 11:35:15;;;;;;;22.23;14.20;;;;;;;;;;5095690;28;20077;-68
2021/12/22 11:37:43;;;;;;;21.55;13.40;;;;;;;;;;5077779;28;20434;-68
2021/12/22 11:40:10;;;;;;;22.90;13.38;;;;;;;;;;5094964;28;20020;-70
2021/12/22 11:42:39;;;;;;;21.67;14.02;;;;;;;;;;5095067;28;20028;-68
2021/12/22 11:45:07;;;;;;;19.50;13.27;;;;;;;;;;5055788;28;20032;-68
2021/12/22 11:47:41;;;;;;;20.10;13.30;;;;;;;;;;5055368;28;20032;-68
2021/12/22 11:50:08;;;;;;;20.33;12.05;;;;;;;;;;5055370;28;20025;-67
2021/12/22 11:52:36;;;;;;;25.10;14.27;;;;;;;;;;5055222;28;20083;-68
2021/12/22 11:55:07;;;;;;;18.30;12.05;;;;;;;;;;5055113;28;20025;-68
2021/12/22 11:57:33;;;;;;;24.83;12.25;;;;;;;;;;5055069;28;20052;-68
2021/12/22 12:00:19;;;;;;;15.82;11.55;;;;;;;;;;5054801;28;20063;-68
2021/12/22 12:02:45;;;;;;;22.52;13.13;;;;;;;;;;5054967;28;20032;-69
2021/12/22 12:05:14;;;;;;;18.33;12.85;;;;;;;;;;5054927;28;20082;-68
2021/12/22 12:07:41;;;;;;;18.45;11.93;;;;;;;;;;5054876;28;20025;-69
2021/12/22 12:10:26;;;;;;;20.02;12.45;;;;;;;;;;5054610;28;20104;-69
2021/12/22 12:12:55;;;;;;;18.90;12.30;;;;;;;;;;5054707;28;20029;-69
2021/12/22 12:15:50;;;;;;;19.00;12.15;;;;;;;;;;5054852;28;20021;-68
2021/12/22 12:23:45;;;;;;;18.60;11.50;;;;;;;;;;5095161;28;20043;-67
2021/12/22 12:26:31;;;;;;;17.70;12.07;;;;;;;;;;5095082;28;20012;-69
2021/12/22 12:28:57;;;;;;;18.48;11.95;;;;;;;;;;5094628;28;20028;-67
2021/12/22 12:31:39;;;;;;;18.25;12.40;;;;;;;;;;5094575;28;20051;-69
2021/12/22 12:34:21;;;;;;;17.15;10.85;;;;;;;;;;5094961;28;20024;-66
2021/12/22 12:36:47;;;;;;;16.52;10.75;;;;;;;;;;5094894;28;20047;-68
2021/12/22 12:39:13;;;;;;;17.38;11.57;;;;;;;;;;5076291;28;20482;-68
2021/12/22 12:41:39;;;;;;;17.05;11.40;;;;;;;;;;5076135;28;20472;-67
2021/12/22 12:44:09;;;;;;;16.48;11.50;;;;;;;;;;5071816;28;20641;-69
2021/12/22 12:46:38;;;;;;;19.33;11.88;;;;;;;;;;5074100;28;20032;-68
2021/12/22 12:49:04;;;;;;;17.25;11.05;;;;;;;;;;5074003;28;20032;-68
2021/12/22 12:51:37;;;;;;;18.60;11.10;;;;;;;;;;5073528;28;20023;-69
2021/12/22 12:54:25;;;;;;;14.13;9.80;;;;;;;;;;5073056;28;20112;-69
2021/12/22 12:57:00;;;;;;;15.90;10.80;;;;;;;;;;5073869;28;20013;-69
2021/12/22 12:59:38;;;;;;;17.60;10.73;;;;;;;;;;5073913;28;20032;-68
2021/12/22 13:02:05;;;;;;;15.30;11.00;;;;;;;;;;5073255;28;20119;-68
2021/12/22 13:04:38;;;;;;;17.10;10.88;;;;;;;;;;5073659;28;20105;-67
2021/12/22 13:07:05;;;;;;;17.77;11.43;;;;;;;;;;5073468;28;20119;-69
2021/12/22 13:09:41;;;;;;;15.68;9.95;;;;;;;;;;5055791;28;20024;-69
2021/12/22 13:12:20;;;;;;;18.30;10.50;;;;;;;;;;5073547;28;20020;-67
2021/12/22 13:17:44;;;;;;;15.80;10.48;;;;;;;;;;5073634;28;20104;-67
2021/12/22 13:20:11;;;;;;;15.75;10.48;;;;;;;;;;5072379;28;20832;-66
2021/12/22 13:22:38;;;;;;;13.10;9.60;;;;;;;;;;5093464;28;20486;-68
2021/12/22 13:25:06;;;;;;;14.55;10.07;;;;;;;;;;5093698;28;20089;-67
2021/12/22 13:27:32;;;;;;;13.02;9.63;;;;;;;;;;5075346;28;20024;-68
2021/12/22 13:30:05;;;;;;;15.77;9.95;;;;;;;;;;5075445;28;20081;-68
2021/12/22 13:32:31;;;;;;;17.45;10.60;;;;;;;;;;5093624;28;20028;-66
2021/12/22 13:34:59;;;;;;;12.80;8.82;;;;;;;;;;5093561;28;20028;-68
2021/12/22 13:37:25;;;;;;;13.15;9.30;;;;;;;;;;5093518;28;20367;-67
2021/12/22 13:39:51;;;;;;;14.70;9.88;;;;;;;;;;5093437;28;20017;-69
2021/12/22 13:42:17;;;;;;;14.45;9.40;;;;;;;;;;5093501;28;20443;-69
2021/12/22 13:44:43;;;;;;;14.60;9.98;;;;;;;;;;5076027;28;20467;-69
2021/12/22 13:47:09;;;;;;;11.88;9.00;;;;;;;;;;5072887;28;20467;-69
2021/12/22 13:49:35;;;;;;;13.57;9.52;;;;;;;;;;5073205;28;20051;-67
2021/12/22 13:52:03;;;;;;;13.95;9.50;;;;;;;;;;5072915;28;20036;-69
2021/12/22 13:54:30;;;;;;;14.48;9.32;;;;;;;;;;5072860;28;20033;-68
2021/12/22 13:57:06;;;;;;;11.38;8.85;;;;;;;;;;5072744;28;20410;-68
2021/12/22 13:59:33;;;;;;;14.30;8.90;;;;;;;;;;5072694;28;20048;-68
2021/12/22 14:02:00;;;;;;;13.63;9.05;;;;;;;;;;5072754;28;20056;-69
2021/12/22 14:04:29;;;;;;;15.95;9.50;;;;;;;;;;5072823;28;20451;-69
2021/12/22 14:06:56;;;;;;;15.32;9.60;;;;;;;;;;5055277;28;20024;-69
2021/12/22 14:09:22;;;;;;;13.18;9.20;;;;;;;;;;5072748;28;20036;-68
2021/12/22 14:11:59;;;;;;;13.35;9.00;;;;;;;;;;5072474;28;20392;-67
2021/12/22 14:14:29;;;;;;;11.55;8.80;;;;;;;;;;5072762;28;20305;-69
2021/12/22 14:17:14;;;;;;;11.88;8.75;;;;;;;;;;5072721;28;20436;-68
2021/12/22 14:19:43;;;;;;;11.05;8.27;;;;;;;;;;5086084;28;20031;-68
2021/12/22 14:22:17;;;;;;;14.07;9.00;;;;;;;;;;5092855;28;20767;-69
2021/12/22 14:24:45;;;;;;;14.75;8.88;;;;;;;;;;5092883;28;20028;-68
2021/12/22 14:27:14;;;;;;;10.50;7.95;;;;;;;;;;5092889;28;20034;-67
2021/12/22 14:29:47;;;;;;;13.40;8.07;;;;;;;;;;5093057;28;20035;-69
2021/12/22 14:32:22;;;;;;;12.23;8.63;;;;;;;;;;5092891;28;20040;-67
2021/12/22 14:34:58;;;;;;;13.20;8.35;;;;;;;;;;5092985;28;20024;-68
2021/12/22 14:37:25;;;;;;;10.35;7.65;;;;;;;;;;5092688;28;20388;-67
2021/12/22 14:39:54;;;;;;;11.38;7.97;;;;;;;;;;5092941;28;20024;-68
2021/12/22 14:42:24;;;;;;;13.55;8.45;;;;;;;;;;5092533;28;20494;-67
2021/12/22 14:44:51;;;;;;;10.10;7.57;;;;;;;;;;5074346;28;20475;-68
2021/12/22 14:47:21;;;;;;;12.25;8.15;;;;;;;;;;5072472;28;20475;-69
2021/12/22 14:49:47;;;;;;;12.77;7.55;;;;;;;;;;5072254;28;20432;-66
2021/12/22 14:52:14;;;;;;;9.77;7.15;;;;;;;;;;5072541;28;20041;-67
2021/12/22 14:54:40;;;;;;;11.23;7.53;;;;;;;;;;5072338;28;20028;-68
2021/12/22 14:57:06;;;;;;;10.73;7.22;;;;;;;;;;5072316;28;20032;-68
2021/12/22 14:59:34;;;;;;;10.88;7.50;;;;;;;;;;5072006;28;20029;-68
2021/12/22 15:02:00;;;;;;;11.80;7.30;;;;;;;;;;5070912;28;20367;-68
2021/12/22 15:04:27;;;;;;;9.88;7.28;;;;;;;;;;5072144;28;20017;-67
2021/12/22 15:06:53;;;;;;;10.90;7.15;;;;;;;;;;5072585;28;20016;-68
2021/12/22 15:09:19;;;;;;;9.48;6.78;;;;;;;;;;5075908;28;20054;-68
2021/12/22 15:11:45;;;;;;;11.52;7.28;;;;;;;;;;5074780;28;20094;-68